Time;durP1;ratioP1;P1;durP2;ratioP2;P2;SDS_P1;SDS_P2;PMS_P1;PMS_P2;Temp;Humidity;BMP_temperature;BMP_pressure;BME280_temperature;BME280_humidity;BME280_pressure;Samples;Min_cycle;Max_cycle;Signal;HPM_P1;HPM_P2
2023/07/13 00:00:42;;;;;;;3.45;0.82;;;24.80;1.00;;;;;;4945511;29;20051;-48
2023/07/13 00:03:13;;;;;;;3.40;0.90;;;24.80;1.00;;;;;;4945969;28;20051;-53
2023/07/13 00:05:41;;;;;;;2.08;0.60;;;24.80;1.00;;;;;;4951792;29;20047;-53
2023/07/13 00:08:08;;;;;;;2.03;0.55;;;24.80;1.00;;;;;;4954547;28;20061;-50
2023/07/13 00:10:42;;;;;;;2.28;0.60;;;24.80;1.00;;;;;;4947045;28;20043;-49
2023/07/13 00:13:09;;;;;;;2.92;1.10;;;24.80;1.00;;;;;;4938902;28;20118;-53
2023/07/13 00:15:36;;;;;;;2.70;0.60;;;24.80;1.00;;;;;;4926743;29;20051;-52
2023/07/13 00:18:03;;;;;;;2.28;0.98;;;24.80;1.00;;;;;;4941393;29;20048;-50
2023/07/13 00:20:31;;;;;;;1.50;0.50;;;24.80;1.00;;;;;;4942014;29;20600;-49
2023/07/13 00:22:57;;;;;;;5.60;1.30;;;24.80;1.00;;;;;;4946160;29;20039;-51
2023/07/13 00:25:27;;;;;;;2.90;1.17;;;24.80;1.00;;;;;;4942556;29;20066;-53
2023/07/13 00:27:55;;;;;;;3.22;0.80;;;24.80;1.00;;;;;;4945152;29;20075;-52
2023/07/13 00:30:22;;;;;;;2.67;0.63;;;24.80;1.00;;;;;;4953375;29;20546;-52
2023/07/13 00:32:50;;;;;;;4.28;0.60;;;24.80;1.00;;;;;;4936186;28;20492;-49
2023/07/13 00:35:31;;;;;;;5.28;1.00;;;24.80;1.00;;;;;;4945818;28;20048;-49
2023/07/13 00:37:58;;;;;;;4.13;0.80;;;24.80;1.00;;;;;;4941978;29;20054;-49
2023/07/13 00:40:25;;;;;;;1.65;0.80;;;24.80;1.00;;;;;;4922153;29;20410;-49
2023/07/13 00:42:53;;;;;;;4.30;1.20;;;24.80;1.00;;;;;;4946207;29;20051;-51
2023/07/13 00:45:20;;;;;;;3.75;0.93;;;24.80;1.00;;;;;;4937151;29;20043;-53
2023/07/13 00:47:47;;;;;;;2.72;0.98;;;24.80;1.00;;;;;;4944782;29;20050;-54
2023/07/13 00:50:16;;;;;;;5.45;1.67;;;24.80;1.00;;;;;;4954497;29;20035;-53
2023/07/13 00:52:46;;;;;;;2.00;0.60;;;24.80;1.00;;;;;;4932187;29;20047;-50
2023/07/13 00:55:14;;;;;;;1.48;0.52;;;24.70;1.00;;;;;;4939759;29;20303;-51
2023/07/13 00:57:43;;;;;;;3.35;0.80;;;24.70;1.00;;;;;;4944697;29;20695;-49
2023/07/13 01:00:11;;;;;;;2.45;1.25;;;24.70;1.00;;;;;;4949571;28;20039;-50
2023/07/13 01:02:42;;;;;;;3.70;0.70;;;24.70;1.00;;;;;;4943149;28;20399;-53
2023/07/13 01:05:15;;;;;;;4.05;0.90;;;24.70;1.00;;;;;;4934853;29;20071;-49
2023/07/13 01:07:44;;;;;;;3.25;0.85;;;24.70;1.00;;;;;;4939951;29;20063;-48
2023/07/13 01:10:12;;;;;;;6.07;0.95;;;24.70;1.00;;;;;;4926097;29;20082;-50
2023/07/13 01:12:40;;;;;;;2.80;0.65;;;24.70;1.00;;;;;;4930264;29;20055;-50
2023/07/13 01:15:40;;;;;;;4.00;0.60;;;24.70;1.00;;;;;;4943944;29;20039;-49
2023/07/13 01:18:15;;;;;;;2.70;0.85;;;24.70;1.00;;;;;;4945064;29;20044;-47
2023/07/13 01:20:57;;;;;;;2.42;0.80;;;24.70;1.00;;;;;;4948667;28;20036;-48
2023/07/13 01:23:25;;;;;;;2.15;0.80;;;24.60;1.00;;;;;;4940911;29;20048;-49
2023/07/13 01:25:55;;;;;;;2.15;0.68;;;24.60;1.00;;;;;;4932461;28;20373;-48
2023/07/13 01:28:26;;;;;;;2.13;0.60;;;24.60;1.00;;;;;;4936193;29;20083;-48
2023/07/13 01:30:56;;;;;;;3.65;0.70;;;24.60;1.00;;;;;;4939184;29;20091;-50
2023/07/13 01:33:23;;;;;;;4.10;0.55;;;24.60;1.00;;;;;;4942811;28;20132;-49
2023/07/13 01:35:50;;;;;;;4.40;1.17;;;24.60;1.00;;;;;;4935429;29;20571;-49
2023/07/13 01:38:20;;;;;;;1.35;0.60;;;24.60;1.00;;;;;;4945312;29;20164;-51
2023/07/13 01:40:48;;;;;;;1.90;0.52;;;24.60;1.00;;;;;;4937112;29;20055;-48
2023/07/13 01:43:15;;;;;;;4.10;1.05;;;24.60;1.00;;;;;;4938654;29;20054;-48
2023/07/13 01:45:44;;;;;;;4.40;0.88;;;24.60;1.00;;;;;;4944171;28;20044;-48
2023/07/13 01:48:13;;;;;;;5.97;0.95;;;24.60;1.00;;;;;;4925021;29;20061;-49
2023/07/13 01:50:41;;;;;;;3.60;0.60;;;24.60;1.00;;;;;;4942171;29;20039;-49
2023/07/13 01:53:08;;;;;;;5.38;0.90;;;24.60;1.00;;;;;;4943363;29;20067;-48
2023/07/13 01:55:37;;;;;;;3.58;1.23;;;24.60;1.00;;;;;;4952510;29;20036;-51
2023/07/13 01:58:04;;;;;;;5.32;1.73;;;24.60;1.00;;;;;;4947842;29;20082;-49
2023/07/13 02:00:31;;;;;;;3.67;1.13;;;24.60;1.00;;;;;;4951133;29;20048;-50
2023/07/13 02:03:01;;;;;;;2.03;0.82;;;24.60;1.00;;;;;;4948782;29;20031;-51
2023/07/13 02:05:30;;;;;;;6.53;1.48;;;24.60;1.00;;;;;;4938695;29;20052;-49
2023/07/13 02:07:57;;;;;;;3.13;1.00;;;24.60;1.00;;;;;;4945138;29;20044;-49
2023/07/13 02:10:25;;;;;;;2.35;1.15;;;24.60;1.00;;;;;;4954385;28;20039;-49
2023/07/13 02:12:52;;;;;;;5.20;1.00;;;24.60;1.00;;;;;;4934520;29;20074;-49
2023/07/13 02:15:19;;;;;;;3.85;0.90;;;24.60;1.00;;;;;;4951429;29;20446;-50
2023/07/13 02:17:46;;;;;;;4.47;2.03;;;24.60;1.00;;;;;;4947605;29;20502;-49
2023/07/13 02:20:13;;;;;;;2.83;1.33;;;24.60;1.00;;;;;;4952062;29;20083;-53
2023/07/13 02:22:40;;;;;;;3.58;0.90;;;24.50;1.00;;;;;;4941591;29;20039;-49
2023/07/13 02:25:07;;;;;;;3.42;1.52;;;24.50;1.00;;;;;;4930717;29;20036;-51
2023/07/13 02:27:34;;;;;;;3.17;1.25;;;24.50;1.00;;;;;;4947823;29;20049;-53
2023/07/13 02:30:02;;;;;;;6.63;1.92;;;24.60;1.00;;;;;;4950869;29;20067;-51
2023/07/13 02:32:29;;;;;;;3.13;1.45;;;24.50;1.00;;;;;;4935961;28;20051;-52
2023/07/13 02:34:56;;;;;;;6.55;0.98;;;24.50;1.00;;;;;;4948168;29;20047;-53
2023/07/13 02:37:22;;;;;;;4.88;1.00;;;24.50;1.00;;;;;;4955117;29;20047;-54
2023/07/13 02:39:50;;;;;;;4.10;0.75;;;24.50;1.00;;;;;;4951514;29;20503;-54
2023/07/13 02:42:16;;;;;;;5.18;1.35;;;24.50;1.00;;;;;;4947292;29;20102;-54
2023/07/13 02:44:44;;;;;;;3.33;0.82;;;24.50;1.00;;;;;;4955979;28;20074;-54
2023/07/13 02:47:11;;;;;;;3.95;1.67;;;24.50;1.00;;;;;;4955909;29;20511;-53
2023/07/13 02:49:38;;;;;;;4.90;0.90;;;24.50;1.00;;;;;;4955102;29;20503;-54
2023/07/13 02:52:05;;;;;;;1.63;0.80;;;24.50;1.00;;;;;;4954942;29;20102;-54
2023/07/13 02:54:32;;;;;;;3.10;0.88;;;24.50;1.00;;;;;;4956186;28;20046;-51
2023/07/13 02:56:59;;;;;;;2.75;1.35;;;24.50;1.00;;;;;;4954675;29;20395;-54
2023/07/13 02:59:26;;;;;;;2.75;1.45;;;24.50;1.00;;;;;;4954843;29;20054;-49
2023/07/13 03:01:53;;;;;;;4.40;1.02;;;24.40;1.00;;;;;;4955816;28;20041;-52
2023/07/13 03:04:20;;;;;;;4.07;0.90;;;24.40;1.00;;;;;;4955869;28;20087;-49
2023/07/13 03:06:47;;;;;;;3.50;0.73;;;24.40;1.00;;;;;;4954690;29;20039;-54
2023/07/13 03:09:15;;;;;;;7.57;1.15;;;24.50;1.00;;;;;;4954681;29;20164;-48
2023/07/13 03:11:48;;;;;;;2.72;1.27;;;24.40;1.00;;;;;;4954600;29;20495;-50
2023/07/13 03:14:23;;;;;;;7.30;0.82;;;24.40;1.00;;;;;;4954441;29;20460;-53
2023/07/13 03:16:51;;;;;;;4.22;1.05;;;24.40;1.00;;;;;;4954211;29;20122;-49
2023/07/13 03:19:21;;;;;;;2.75;0.80;;;24.40;1.00;;;;;;4955919;28;20040;-48
2023/07/13 03:21:50;;;;;;;2.75;1.02;;;24.40;1.00;;;;;;4954511;29;20047;-48
2023/07/13 03:24:17;;;;;;;3.35;0.82;;;24.40;1.00;;;;;;4954059;29;20043;-48
2023/07/13 03:26:44;;;;;;;2.03;0.70;;;24.40;1.00;;;;;;4954047;29;20183;-50
2023/07/13 03:29:11;;;;;;;1.83;0.80;;;24.40;1.00;;;;;;4954300;29;20058;-51
2023/07/13 03:31:39;;;;;;;2.92;0.60;;;24.40;1.00;;;;;;4954124;29;20063;-49
2023/07/13 03:34:07;;;;;;;2.67;1.08;;;24.40;1.00;;;;;;4953576;29;20078;-48
2023/07/13 03:36:36;;;;;;;2.47;1.55;;;24.40;1.00;;;;;;4953386;29;20086;-49
2023/07/13 03:39:09;;;;;;;3.63;1.75;;;24.40;1.00;;;;;;4953980;29;20047;-47
2023/07/13 03:41:45;;;;;;;2.85;0.70;;;24.40;1.00;;;;;;4953493;29;20039;-48
2023/07/13 03:44:13;;;;;;;3.60;1.10;;;24.30;1.00;;;;;;4954047;29;20418;-50
2023/07/13 03:46:40;;;;;;;6.47;1.10;;;24.30;1.00;;;;;;4955013;28;20527;-48
2023/07/13 03:49:08;;;;;;;4.43;0.70;;;24.30;1.00;;;;;;4953861;29;20050;-51
2023/07/13 03:51:35;;;;;;;3.38;1.42;;;24.30;1.00;;;;;;4955118;28;20415;-49
2023/07/13 03:54:02;;;;;;;2.17;0.98;;;24.30;1.00;;;;;;4953632;29;20043;-55
2023/07/13 03:56:30;;;;;;;3.22;1.02;;;24.30;1.00;;;;;;4952772;28;20055;-52
2023/07/13 03:58:57;;;;;;;3.20;0.70;;;24.30;1.00;;;;;;4954885;28;20536;-47
2023/07/13 04:01:24;;;;;;;2.28;1.20;;;24.30;1.00;;;;;;4953637;29;20137;-50
2023/07/13 04:03:52;;;;;;;4.50;0.88;;;24.30;1.00;;;;;;4954838;28;20425;-51
2023/07/13 04:06:27;;;;;;;4.15;0.95;;;24.30;1.00;;;;;;4953163;29;20035;-50
2023/07/13 04:08:57;;;;;;;5.50;1.15;;;24.30;1.00;;;;;;4942573;29;20046;-48
2023/07/13 04:11:27;;;;;;;5.20;1.08;;;24.30;1.00;;;;;;4928748;29;20043;-48
2023/07/13 04:13:54;;;;;;;5.72;0.98;;;24.20;1.00;;;;;;4922286;29;20048;-50
2023/07/13 04:16:21;;;;;;;4.93;1.40;;;24.20;1.00;;;;;;4928880;29;20044;-47
2023/07/13 04:18:49;;;;;;;3.65;1.15;;;24.20;1.00;;;;;;4938846;29;20039;-48
2023/07/13 04:21:16;;;;;;;6.03;1.55;;;24.20;1.00;;;;;;4954780;28;20443;-49
2023/07/13 04:23:44;;;;;;;5.35;1.65;;;24.20;1.00;;;;;;4950382;28;20098;-51
2023/07/13 04:26:11;;;;;;;8.00;1.75;;;24.20;1.00;;;;;;4938742;28;20059;-52
2023/07/13 04:28:38;;;;;;;6.82;1.88;;;24.10;1.00;;;;;;4954906;28;20043;-48
2023/07/13 04:31:05;;;;;;;9.10;1.25;;;24.10;1.00;;;;;;4953678;29;20039;-50
2023/07/13 04:33:33;;;;;;;3.78;1.65;;;24.10;1.00;;;;;;4953497;29;20061;-55
2023/07/13 04:36:01;;;;;;;9.30;2.03;;;24.10;1.00;;;;;;4953727;28;20098;-48
2023/07/13 04:38:31;;;;;;;5.43;1.67;;;24.10;1.00;;;;;;4953888;28;20121;-48
2023/07/13 04:41:04;;;;;;;7.80;1.35;;;24.10;1.00;;;;;;4953640;29;20408;-48
2023/07/13 04:43:33;;;;;;;8.90;2.40;;;24.10;1.00;;;;;;4954231;28;20046;-49
2023/07/13 04:46:08;;;;;;;4.35;1.42;;;24.10;1.00;;;;;;4953625;28;20067;-50
2023/07/13 04:48:35;;;;;;;7.13;1.60;;;24.10;1.00;;;;;;4954230;28;20042;-49
2023/07/13 04:51:03;;;;;;;3.15;1.42;;;24.10;1.00;;;;;;4953939;29;20036;-48
2023/07/13 04:53:30;;;;;;;5.95;1.58;;;24.10;1.00;;;;;;4954203;28;20039;-49
2023/07/13 04:55:58;;;;;;;4.15;1.73;;;24.10;1.00;;;;;;4953810;28;20047;-48
2023/07/13 04:58:25;;;;;;;4.05;1.83;;;24.10;1.00;;;;;;4953919;28;20039;-48
2023/07/13 05:00:58;;;;;;;7.40;1.60;;;24.10;1.00;;;;;;4942846;28;20469;-49
2023/07/13 05:03:25;;;;;;;4.05;1.25;;;24.00;1.00;;;;;;4942150;29;20070;-50
2023/07/13 05:06:04;;;;;;;9.25;1.63;;;24.00;1.00;;;;;;4932699;29;20051;-52
2023/07/13 05:08:31;;;;;;;6.93;1.08;;;24.10;1.00;;;;;;4934822;29;20091;-51
2023/07/13 05:11:03;;;;;;;4.63;2.20;;;24.00;1.00;;;;;;4934381;29;20039;-49
2023/07/13 05:13:30;;;;;;;3.50;1.20;;;24.00;1.00;;;;;;4934752;29;20060;-49
2023/07/13 05:15:59;;;;;;;4.82;1.45;;;24.00;1.00;;;;;;4934531;29;20072;-49
2023/07/13 05:18:27;;;;;;;6.10;1.33;;;24.00;1.00;;;;;;4934621;29;20126;-49
2023/07/13 05:21:05;;;;;;;8.07;2.42;;;24.00;1.00;;;;;;4933446;29;20047;-50
2023/07/13 05:23:34;;;;;;;5.50;1.38;;;24.00;1.00;;;;;;4934445;29;20043;-50
2023/07/13 05:26:01;;;;;;;5.00;1.10;;;24.00;1.00;;;;;;4934290;29;20031;-49
2023/07/13 05:28:32;;;;;;;4.75;1.00;;;24.00;1.00;;;;;;4934443;29;20040;-50
2023/07/13 05:30:59;;;;;;;5.35;1.65;;;24.00;1.00;;;;;;4934426;29;20058;-49
2023/07/13 05:33:26;;;;;;;3.25;1.10;;;24.00;1.00;;;;;;4946083;29;20043;-51
2023/07/13 05:35:53;;;;;;;3.28;1.15;;;24.00;1.00;;;;;;4953264;29;20510;-48
2023/07/13 05:38:20;;;;;;;4.70;1.25;;;24.00;1.00;;;;;;4953524;29;20039;-48
2023/07/13 05:40:47;;;;;;;2.95;1.10;;;24.00;1.00;;;;;;4953600;28;20102;-49
2023/07/13 05:43:15;;;;;;;5.93;1.05;;;24.00;1.00;;;;;;4953400;28;20186;-48
2023/07/13 05:45:42;;;;;;;2.72;1.20;;;24.00;1.00;;;;;;4953308;28;20039;-47
2023/07/13 05:48:09;;;;;;;2.97;1.00;;;24.00;1.00;;;;;;4953340;29;20027;-49
2023/07/13 05:50:36;;;;;;;3.42;1.40;;;24.00;1.00;;;;;;4953278;29;20134;-50
2023/07/13 05:53:03;;;;;;;2.83;0.80;;;24.00;1.00;;;;;;4953379;29;20118;-51
2023/07/13 05:55:30;;;;;;;5.05;1.05;;;24.00;1.00;;;;;;4953562;28;20395;-50
2023/07/13 05:57:58;;;;;;;3.95;0.98;;;24.00;1.00;;;;;;4953379;28;20126;-50
2023/07/13 06:00:25;;;;;;;4.25;1.20;;;24.00;1.00;;;;;;4953121;28;20049;-49
2023/07/13 06:02:52;;;;;;;3.38;1.02;;;24.00;1.00;;;;;;4951972;29;20540;-50
2023/07/13 06:05:19;;;;;;;3.60;1.40;;;24.00;1.00;;;;;;4952899;28;20053;-51
2023/07/13 06:07:46;;;;;;;4.30;1.20;;;24.00;1.00;;;;;;4953328;29;20062;-51
2023/07/13 06:10:13;;;;;;;2.42;0.93;;;24.00;1.00;;;;;;4953197;29;20561;-49
2023/07/13 06:12:40;;;;;;;5.63;1.10;;;24.00;1.00;;;;;;4953151;29;20051;-48
2023/07/13 06:15:07;;;;;;;2.85;0.80;;;24.00;1.00;;;;;;4953188;29;20047;-49
2023/07/13 06:17:36;;;;;;;4.13;1.42;;;24.00;1.00;;;;;;4953108;28;20051;-51
2023/07/13 06:20:03;;;;;;;3.42;0.85;;;24.00;1.00;;;;;;4954924;28;20043;-48
2023/07/13 06:22:30;;;;;;;2.92;1.05;;;24.00;1.00;;;;;;4956779;28;20043;-48
2023/07/13 06:24:57;;;;;;;2.10;0.88;;;24.00;1.00;;;;;;4956718;29;20039;-50
2023/07/13 06:27:24;;;;;;;1.98;0.80;;;24.00;1.00;;;;;;4956434;29;20518;-48
2023/07/13 06:29:51;;;;;;;4.25;1.13;;;24.00;1.00;;;;;;4950219;29;20095;-48
2023/07/13 06:32:18;;;;;;;2.08;0.80;;;24.00;1.00;;;;;;4937257;29;20044;-47
2023/07/13 06:34:45;;;;;;;5.18;1.67;;;24.00;1.00;;;;;;4937576;29;20047;-49
2023/07/13 06:37:12;;;;;;;3.80;1.58;;;24.00;1.00;;;;;;4936940;29;20500;-48
2023/07/13 06:39:38;;;;;;;6.13;1.67;;;24.00;1.00;;;;;;4937373;29;20035;-50
2023/07/13 06:42:06;;;;;;;5.78;1.00;;;24.00;1.00;;;;;;4936993;29;20044;-48
2023/07/13 06:44:33;;;;;;;4.15;1.15;;;24.00;1.00;;;;;;4937296;29;20412;-48
2023/07/13 06:47:00;;;;;;;1.90;0.98;;;24.00;1.00;;;;;;4936938;29;20035;-47
2023/07/13 06:49:27;;;;;;;2.80;0.95;;;24.10;1.00;;;;;;4937136;29;20087;-49
2023/07/13 06:51:54;;;;;;;4.20;0.90;;;24.00;1.00;;;;;;4943700;29;20118;-48
2023/07/13 06:54:21;;;;;;;3.17;1.10;;;24.10;1.00;;;;;;4938080;29;20058;-48
2023/07/13 06:56:48;;;;;;;2.30;0.73;;;24.00;1.00;;;;;;4936954;29;20373;-48
2023/07/13 06:59:15;;;;;;;2.15;1.25;;;24.10;1.00;;;;;;4937120;29;20039;-48
2023/07/13 07:01:42;;;;;;;3.30;1.45;;;24.10;1.00;;;;;;4936994;29;20040;-48
2023/07/13 07:04:09;;;;;;;4.07;1.05;;;24.10;1.00;;;;;;4936566;29;20040;-48
2023/07/13 07:06:36;;;;;;;1.17;0.80;;;24.10;1.00;;;;;;4935951;29;20043;-49
2023/07/13 07:09:03;;;;;;;3.60;1.48;;;24.10;1.00;;;;;;4936839;29;20039;-47
2023/07/13 07:11:30;;;;;;;3.92;1.38;;;24.10;1.00;;;;;;4936635;29;20039;-48
2023/07/13 07:13:57;;;;;;;2.05;0.82;;;24.10;1.00;;;;;;4936631;29;20496;-47
2023/07/13 07:16:25;;;;;;;4.80;1.15;;;24.10;1.00;;;;;;4936563;29;20519;-48
2023/07/13 07:18:52;;;;;;;2.67;0.70;;;24.10;1.00;;;;;;4936901;29;20456;-48
2023/07/13 07:21:19;;;;;;;2.38;0.80;;;24.10;1.00;;;;;;4936606;29;20055;-48
2023/07/13 07:23:46;;;;;;;3.60;1.05;;;24.10;1.00;;;;;;4936598;29;20075;-48
2023/07/13 07:26:13;;;;;;;3.80;0.95;;;24.10;1.00;;;;;;4936353;29;20435;-48
2023/07/13 07:28:40;;;;;;;2.40;0.85;;;24.20;1.00;;;;;;4936478;29;20273;-49
2023/07/13 07:31:12;;;;;;;2.97;1.27;;;24.10;1.00;;;;;;4935363;29;20050;-50
2023/07/13 07:33:42;;;;;;;1.98;0.60;;;24.20;1.00;;;;;;4936465;29;20333;-48
2023/07/13 07:36:09;;;;;;;2.72;0.90;;;24.20;1.00;;;;;;4936244;29;20095;-48
2023/07/13 07:38:39;;;;;;;2.17;1.02;;;24.20;1.00;;;;;;4936426;29;20036;-51
2023/07/13 07:41:06;;;;;;;1.65;0.60;;;24.20;1.00;;;;;;4936073;29;20048;-53
2023/07/13 07:43:36;;;;;;;1.27;0.47;;;24.20;1.00;;;;;;4936183;29;20063;-47
2023/07/13 07:46:04;;;;;;;2.13;1.05;;;24.20;1.00;;;;;;4936009;29;20123;-49
2023/07/13 07:48:31;;;;;;;1.40;0.73;;;24.20;1.00;;;;;;4936049;29;20067;-50
2023/07/13 07:50:58;;;;;;;1.85;0.77;;;24.20;1.00;;;;;;4936268;29;20468;-50
2023/07/13 07:53:25;;;;;;;1.20;0.43;;;24.20;1.00;;;;;;4936050;29;20048;-48
2023/07/13 07:55:52;;;;;;;2.70;0.68;;;24.20;1.00;;;;;;4935916;29;20522;-48
2023/07/13 07:58:22;;;;;;;3.72;0.73;;;24.20;1.00;;;;;;4936199;29;20071;-48
2023/07/13 08:00:52;;;;;;;1.58;0.63;;;24.20;1.00;;;;;;4936462;29;20518;-48
2023/07/13 08:03:22;;;;;;;3.90;0.63;;;24.20;1.00;;;;;;4936784;29;20071;-50
2023/07/13 08:05:54;;;;;;;3.10;0.70;;;24.20;1.00;;;;;;4936617;29;20036;-54
2023/07/13 08:08:25;;;;;;;4.68;0.80;;;24.20;1.00;;;;;;4936413;29;20122;-53
2023/07/13 08:10:53;;;;;;;2.17;0.50;;;24.20;1.00;;;;;;4936948;29;20095;-53
2023/07/13 08:13:40;;;;;;;4.32;1.33;;;24.20;1.00;;;;;;4937198;29;20051;-53
2023/07/13 08:16:07;;;;;;;1.55;0.77;;;24.20;1.00;;;;;;4936559;29;20047;-50
2023/07/13 08:18:34;;;;;;;1.73;0.50;;;24.20;1.00;;;;;;4936957;29;20427;-53
2023/07/13 08:21:06;;;;;;;3.33;0.70;;;24.20;1.00;;;;;;4936345;29;20039;-53
2023/07/13 08:23:33;;;;;;;2.22;0.75;;;24.20;1.00;;;;;;4939142;29;20050;-54
2023/07/13 08:26:01;;;;;;;3.53;1.08;;;24.20;1.00;;;;;;4955553;28;20451;-51
2023/07/13 08:28:28;;;;;;;2.17;0.93;;;24.20;1.00;;;;;;4955274;28;20082;-53
2023/07/13 08:31:00;;;;;;;1.77;1.05;;;24.20;1.00;;;;;;4955334;28;20039;-54
2023/07/13 08:33:27;;;;;;;2.70;0.70;;;24.30;1.00;;;;;;4955248;28;20043;-50
2023/07/13 08:35:54;;;;;;;4.60;1.02;;;24.30;1.00;;;;;;4955156;29;20460;-49
2023/07/13 08:38:21;;;;;;;2.33;0.60;;;24.30;1.00;;;;;;4955122;29;20050;-49
2023/07/13 08:40:56;;;;;;;3.05;0.95;;;24.30;1.00;;;;;;4955513;28;20442;-52
2023/07/13 08:43:35;;;;;;;2.95;1.23;;;24.30;1.00;;;;;;4956265;28;20401;-50
2023/07/13 08:46:08;;;;;;;2.65;0.90;;;24.30;1.00;;;;;;4956170;28;20054;-48
2023/07/13 08:48:41;;;;;;;2.83;0.80;;;24.30;1.00;;;;;;4957434;28;20043;-48
2023/07/13 08:51:29;;;;;;;3.72;1.25;;;24.30;1.00;;;;;;4957585;28;20163;-51
2023/07/13 08:54:01;;;;;;;3.05;0.90;;;24.30;1.00;;;;;;4956405;28;20499;-50
2023/07/13 08:56:31;;;;;;;2.88;1.10;;;24.30;1.00;;;;;;4956497;28;20047;-53
2023/07/13 08:59:06;;;;;;;3.58;1.23;;;24.30;1.00;;;;;;4956696;28;20043;-52
2023/07/13 09:01:51;;;;;;;3.65;0.90;;;24.30;1.00;;;;;;4937601;28;20043;-53
2023/07/13 09:04:34;;;;;;;2.65;0.63;;;24.30;1.00;;;;;;4936711;29;20051;-52
2023/07/13 09:07:32;;;;;;;2.38;1.33;;;24.30;1.00;;;;;;4935826;29;20040;-52
2023/07/13 09:09:59;;;;;;;3.30;0.93;;;24.30;1.00;;;;;;4936288;29;20114;-50
2023/07/13 09:12:46;;;;;;;1.58;0.90;;;24.30;1.00;;;;;;4936336;29;20067;-50
2023/07/13 09:15:39;;;;;;;1.58;0.73;;;24.30;1.00;;;;;;4934623;29;20067;-49
2023/07/13 09:18:24;;;;;;;5.50;0.95;;;24.30;1.00;;;;;;4934870;29;20044;-50
2023/07/13 09:21:02;;;;;;;3.60;1.27;;;24.30;1.00;;;;;;4933151;29;20435;-50
2023/07/13 09:23:30;;;;;;;6.28;1.88;;;24.30;1.00;;;;;;4934307;29;20055;-49
2023/07/13 09:26:10;;;;;;;5.30;1.65;;;24.30;1.00;;;;;;4934336;29;20044;-53
2023/07/13 09:28:42;;;;;;;3.63;1.17;;;24.30;1.00;;;;;;4926834;29;20036;-50
2023/07/13 09:31:34;;;;;;;2.50;1.20;;;24.30;1.00;;;;;;4934353;29;20090;-55
2023/07/13 09:34:01;;;;;;;2.03;0.80;;;24.30;1.00;;;;;;4934544;29;20567;-54
2023/07/13 09:36:30;;;;;;;3.30;1.20;;;24.30;1.00;;;;;;4934233;29;20071;-55
2023/07/13 09:39:23;;;;;;;3.85;1.40;;;24.30;1.00;;;;;;4934484;29;20519;-49
2023/07/13 09:42:17;;;;;;;8.18;1.02;;;24.30;1.00;;;;;;4898175;29;20111;-53
2023/07/13 09:44:58;;;;;;;1.88;0.90;;;24.30;1.00;;;;;;4934451;29;20043;-49
2023/07/13 09:47:38;;;;;;;1.75;0.88;;;24.30;1.00;;;;;;4934245;29;20091;-52
2023/07/13 09:50:18;;;;;;;3.53;1.25;;;24.30;1.00;;;;;;4934298;29;20040;-54
2023/07/13 09:52:48;;;;;;;3.50;0.80;;;24.30;1.00;;;;;;4934412;29;20099;-54
2023/07/13 09:55:35;;;;;;;2.38;1.20;;;24.30;1.00;;;;;;4936425;29;20098;-53
2023/07/13 09:58:14;;;;;;;2.97;1.17;;;24.40;1.00;;;;;;4938132;29;20095;-53
2023/07/13 10:00:43;;;;;;;4.25;1.10;;;24.30;1.00;;;;;;4937828;29;20538;-51
2023/07/13 10:03:20;;;;;;;3.33;1.10;;;24.30;1.00;;;;;;4938018;29;20448;-49
2023/07/13 10:05:52;;;;;;;2.00;0.82;;;24.30;1.00;;;;;;4937696;29;20460;-49
2023/07/13 10:08:27;;;;;;;3.92;0.77;;;24.30;1.00;;;;;;4938574;29;20040;-50
2023/07/13 10:11:09;;;;;;;2.95;1.05;;;24.30;1.00;;;;;;4956965;28;20050;-52
2023/07/13 10:13:41;;;;;;;6.57;1.30;;;24.30;1.00;;;;;;4956755;29;20380;-49
2023/07/13 10:16:09;;;;;;;2.75;1.05;;;24.40;1.00;;;;;;4956914;28;20049;-55
2023/07/13 10:18:43;;;;;;;4.00;1.42;;;24.30;1.00;;;;;;4957149;29;20039;-49
2023/07/13 10:21:14;;;;;;;3.35;1.08;;;24.30;1.00;;;;;;4957260;28;20051;-53
2023/07/13 10:23:49;;;;;;;1.75;0.88;;;24.30;1.00;;;;;;4956663;28;20119;-51
2023/07/13 10:26:21;;;;;;;4.20;2.13;;;24.30;1.00;;;;;;4956497;28;20102;-51
2023/07/13 10:28:55;;;;;;;4.43;1.48;;;24.30;1.00;;;;;;4956795;28;20039;-49
2023/07/13 10:31:23;;;;;;;3.47;1.00;;;24.30;1.00;;;;;;4956839;28;20122;-50
2023/07/13 10:33:50;;;;;;;3.65;1.45;;;24.30;1.00;;;;;;4956641;28;20085;-55
2023/07/13 10:36:42;;;;;;;4.32;1.38;;;24.30;1.00;;;;;;4956360;28;20414;-49
2023/07/13 10:39:17;;;;;;;1.48;0.98;;;24.30;1.00;;;;;;4956523;28;20098;-50
2023/07/13 10:41:47;;;;;;;7.05;1.42;;;24.30;1.00;;;;;;4956626;28;20063;-53
2023/07/13 10:44:21;;;;;;;2.50;0.90;;;24.30;1.00;;;;;;4956395;28;20500;-52
2023/07/13 10:46:49;;;;;;;4.32;1.15;;;24.30;1.00;;;;;;4956207;28;20449;-49
2023/07/13 10:49:17;;;;;;;4.72;1.23;;;24.30;1.00;;;;;;4956424;28;20038;-50
2023/07/13 10:51:45;;;;;;;4.30;1.70;;;24.30;1.00;;;;;;4956229;28;20114;-51
2023/07/13 10:54:18;;;;;;;5.35;1.25;;;24.30;1.00;;;;;;4956308;28;20035;-49
2023/07/13 10:56:52;;;;;;;2.97;0.98;;;24.30;1.00;;;;;;4955682;28;20054;-49
2023/07/13 10:59:29;;;;;;;2.83;1.08;;;24.30;1.00;;;;;;4956434;28;20551;-49
2023/07/13 11:01:58;;;;;;;3.55;1.40;;;24.30;1.00;;;;;;4956438;28;20443;-52
2023/07/13 11:04:41;;;;;;;6.32;1.50;;;24.30;1.00;;;;;;4955977;28;20039;-49
2023/07/13 11:07:24;;;;;;;2.97;0.93;;;24.30;1.00;;;;;;4956074;28;20039;-49
2023/07/13 11:09:54;;;;;;;4.40;1.70;;;24.30;1.00;;;;;;4956280;28;20043;-49
2023/07/13 11:12:24;;;;;;;3.33;1.50;;;24.30;1.00;;;;;;4955704;28;20044;-51
2023/07/13 11:14:54;;;;;;;3.75;1.08;;;24.30;1.00;;;;;;4955873;28;20031;-50
2023/07/13 11:17:27;;;;;;;4.95;1.23;;;24.30;1.00;;;;;;4955731;29;20071;-51
2023/07/13 11:20:08;;;;;;;3.90;1.88;;;24.30;1.00;;;;;;4955864;29;20035;-49
2023/07/13 11:23:06;;;;;;;5.00;1.55;;;24.30;1.00;;;;;;4937560;28;20047;-49
2023/07/13 11:25:37;;;;;;;5.28;0.93;;;24.30;1.00;;;;;;4936274;29;20563;-51
2023/07/13 11:28:10;;;;;;;4.18;1.30;;;24.30;1.00;;;;;;4936382;29;20039;-50
2023/07/13 11:30:52;;;;;;;4.93;1.05;;;24.30;1.00;;;;;;4936358;29;20067;-49
2023/07/13 11:33:43;;;;;;;4.85;2.25;;;24.30;1.00;;;;;;4936296;29;20102;-49
2023/07/13 11:36:16;;;;;;;3.60;1.30;;;24.30;1.00;;;;;;4926323;29;20062;-50
2023/07/13 11:38:58;;;;;;;3.42;1.48;;;24.30;1.00;;;;;;4936188;29;20044;-49
2023/07/13 11:41:36;;;;;;;;;;;24.30;1.00;;;;;;4936476;29;20080;-51
2023/07/13 11:44:19;;;;;;;4.70;1.30;;;24.30;1.00;;;;;;4936351;29;19961;-47
2023/07/13 11:46:52;;;;;;;4.63;1.42;;;24.30;1.00;;;;;;4928257;29;20043;-49
2023/07/13 11:49:24;;;;;;;3.17;1.38;;;24.30;1.00;;;;;;4936053;29;20043;-50
2023/07/13 11:51:55;;;;;;;2.00;1.00;;;24.30;1.00;;;;;;4936017;29;20047;-50
2023/07/13 11:54:55;;;;;;;6.53;1.58;;;24.30;1.00;;;;;;4934796;29;20139;-49
2023/07/13 11:57:35;;;;;;;4.47;1.38;;;24.30;1.00;;;;;;4935612;29;20044;-49
2023/07/13 12:00:11;;;;;;;6.25;1.20;;;24.30;1.00;;;;;;4936025;29;20040;-53
2023/07/13 12:02:42;;;;;;;3.42;1.73;;;24.30;1.00;;;;;;4936040;29;20075;-50
2023/07/13 12:05:23;;;;;;;6.72;1.75;;;24.30;1.00;;;;;;4936004;29;20040;-53
2023/07/13 12:07:51;;;;;;;3.28;1.42;;;24.30;1.00;;;;;;4935667;29;20120;-51
2023/07/13 12:10:18;;;;;;;3.97;1.40;;;24.30;1.00;;;;;;4935683;29;20048;-49
2023/07/13 12:12:52;;;;;;;3.58;1.42;;;24.30;1.00;;;;;;4935523;29;20502;-52
2023/07/13 12:15:21;;;;;;;5.72;2.28;;;24.30;1.00;;;;;;4935459;29;20563;-49
2023/07/13 12:17:49;;;;;;;2.00;1.25;;;24.30;1.00;;;;;;4935068;29;20044;-51
2023/07/13 12:20:26;;;;;;;3.88;1.02;;;24.30;1.00;;;;;;4935286;29;20476;-52
2023/07/13 12:22:53;;;;;;;3.20;1.27;;;24.30;1.00;;;;;;4928035;29;20039;-50
2023/07/13 12:25:29;;;;;;;4.60;1.65;;;24.30;1.00;;;;;;4939571;29;20048;-51
2023/07/13 12:27:56;;;;;;;6.57;1.45;;;24.30;1.00;;;;;;4934212;29;20488;-49
2023/07/13 12:30:26;;;;;;;2.85;1.63;;;24.30;1.00;;;;;;4934152;29;20035;-51
2023/07/13 12:33:12;;;;;;;3.42;2.00;;;24.30;1.00;;;;;;4935145;29;20079;-52
2023/07/13 12:35:52;;;;;;;4.00;1.50;;;24.30;1.00;;;;;;4935122;29;20068;-55
2023/07/13 12:38:22;;;;;;;5.13;1.40;;;24.30;1.00;;;;;;4935376;29;20061;-52
2023/07/13 12:40:51;;;;;;;5.80;1.00;;;24.20;1.00;;;;;;4935105;29;20055;-52
2023/07/13 12:43:21;;;;;;;3.97;1.55;;;24.20;1.00;;;;;;4932502;29;20043;-55
2023/07/13 12:46:23;;;;;;;6.32;2.47;;;24.30;1.00;;;;;;4934477;29;20040;-55
2023/07/13 12:48:52;;;;;;;5.55;1.80;;;24.20;1.00;;;;;;4921416;29;20553;-51
2023/07/13 12:51:36;;;;;;;8.13;1.80;;;24.20;1.00;;;;;;4953674;28;20047;-55
2023/07/13 12:54:17;;;;;;;6.10;2.67;;;24.20;1.00;;;;;;4954140;28;20070;-52
2023/07/13 12:56:45;;;;;;;9.13;2.15;;;24.20;1.00;;;;;;4953978;28;20146;-54
2023/07/13 12:59:20;;;;;;;2.97;1.65;;;24.20;1.00;;;;;;4954203;28;20047;-53
2023/07/13 13:01:49;;;;;;;3.88;1.65;;;24.20;1.00;;;;;;4953816;28;20039;-55
2023/07/13 13:04:21;;;;;;;4.30;1.75;;;24.20;1.00;;;;;;4954243;28;20482;-54
2023/07/13 13:07:00;;;;;;;2.28;1.27;;;24.20;1.00;;;;;;4953924;28;20378;-55
2023/07/13 13:09:27;;;;;;;11.70;1.67;;;24.20;1.00;;;;;;4953975;28;20043;-54
2023/07/13 13:11:54;;;;;;;14.02;2.00;;;24.20;1.00;;;;;;4953794;28;20466;-53
2023/07/13 13:14:21;;;;;;;3.30;1.70;;;24.20;1.00;;;;;;4954212;29;20094;-52
2023/07/13 13:16:50;;;;;;;5.82;2.53;;;24.30;1.00;;;;;;4953525;29;20122;-54